sensor_id;sensor_type;location;lat;lon;timestamp;temperature;humidity
5520;DHT22;2782;52.362;10.012;2023-06-26T00:00:48;21.90;99.90
5520;DHT22;2782;52.362;10.012;2023-06-26T00:01:49;22.00;99.90
5520;DHT22;2782;52.362;10.012;2023-06-26T00:02:50;21.90;99.90
5520;DHT22;2782;52.362;10.012;2023-06-26T00:03:53;21.90;99.90
5520;DHT22;2782;52.362;10.012;2023-06-26T00:04:54;21.90;99.90
5520;DHT22;2782;52.362;10.012;2023-06-26T00:05:56;22.00;99.90
5520;DHT22;2782;52.362;10.012;2023-06-26T00:07:00;22.00;99.90
5520;DHT22;2782;52.362;10.012;2023-06-26T00:08:02;22.00;99.90
5520;DHT22;2782;52.362;10.012;2023-06-26T00:09:03;22.00;99.90
5520;DHT22;2782;52.362;10.012;2023-06-26T00:10:05;22.00;99.90
5520;DHT22;2782;52.362;10.012;2023-06-26T00:11:06;21.90;99.90
5520;DHT22;2782;52.362;10.012;2023-06-26T00:12:08;21.90;99.90
5520;DHT22;2782;52.362;10.012;2023-06-26T00:13:09;21.90;99.90
5520;DHT22;2782;52.362;10.012;2023-06-26T00:14:12;21.90;99.90
5520;DHT22;2782;52.362;10.012;2023-06-26T00:15:13;21.90;99.90
5520;DHT22;2782;52.362;10.012;2023-06-26T00:16:15;22.00;99.90
5520;DHT22;2782;52.362;10.012;2023-06-26T00:17:15;21.90;99.90
5520;DHT22;2782;52.362;10.012;2023-06-26T00:18:17;22.00;99.90
5520;DHT22;2782;52.362;10.012;2023-06-26T00:19:19;22.00;99.90
5520;DHT22;2782;52.362;10.012;2023-06-26T00:20:21;21.90;99.90
5520;DHT22;2782;52.362;10.012;2023-06-26T00:21:23;21.90;99.90
5520;DHT22;2782;52.362;10.012;2023-06-26T00:22:25;21.90;99.90
5520;DHT22;2782;52.362;10.012;2023-06-26T00:23:26;21.90;99.90
5520;DHT22;2782;52.362;10.012;2023-06-26T00:24:27;21.90;99.90
5520;DHT22;2782;52.362;10.012;2023-06-26T00:25:28;21.90;99.90
5520;DHT22;2782;52.362;10.012;2023-06-26T00:26:30;21.90;99.90
5520;DHT22;2782;52.362;10.012;2023-06-26T00:27:30;21.80;99.90
5520;DHT22;2782;52.362;10.012;2023-06-26T00:28:32;21.80;99.90
5520;DHT22;2782;52.362;10.012;2023-06-26T00:29:32;21.80;99.90
5520;DHT22;2782;52.362;10.012;2023-06-26T00:30:34;21.80;99.90
5520;DHT22;2782;52.362;10.012;2023-06-26T00:31:34;21.90;99.90
5520;DHT22;2782;52.362;10.012;2023-06-26T00:32:36;21.80;99.90
5520;DHT22;2782;52.362;10.012;2023-06-26T00:33:37;21.80;99.90
5520;DHT22;2782;52.362;10.012;2023-06-26T00:34:40;21.80;99.90
5520;DHT22;2782;52.362;10.012;2023-06-26T00:35:40;21.80;99.90
5520;DHT22;2782;52.362;10.012;2023-06-26T00:36:42;21.70;99.90
5520;DHT22;2782;52.362;10.012;2023-06-26T00:37:44;21.70;99.90
5520;DHT22;2782;52.362;10.012;2023-06-26T00:38:46;21.70;99.90
5520;DHT22;2782;52.362;10.012;2023-06-26T00:39:47;21.70;99.90
5520;DHT22;2782;52.362;10.012;2023-06-26T00:40:48;21.70;99.90
5520;DHT22;2782;52.362;10.012;2023-06-26T00:41:49;21.60;99.90
5520;DHT22;2782;52.362;10.012;2023-06-26T00:42:50;21.60;99.90
5520;DHT22;2782;52.362;10.012;2023-06-26T00:43:51;21.60;99.90
5520;DHT22;2782;52.362;10.012;2023-06-26T00:44:53;21.60;99.90
5520;DHT22;2782;52.362;10.012;2023-06-26T00:45:54;21.60;99.90
5520;DHT22;2782;52.362;10.012;2023-06-26T00:46:55;21.60;99.90
5520;DHT22;2782;52.362;10.012;2023-06-26T00:47:57;21.60;99.90
5520;DHT22;2782;52.362;10.012;2023-06-26T00:48:59;21.50;99.90
5520;DHT22;2782;52.362;10.012;2023-06-26T00:50:02;21.50;99.90
5520;DHT22;2782;52.362;10.012;2023-06-26T00:51:05;21.50;99.90
5520;DHT22;2782;52.362;10.012;2023-06-26T00:52:06;21.50;99.90
5520;DHT22;2782;52.362;10.012;2023-06-26T00:53:09;21.50;99.90
5520;DHT22;2782;52.362;10.012;2023-06-26T00:54:10;21.50;99.90
5520;DHT22;2782;52.362;10.012;2023-06-26T00:55:12;21.50;99.90
5520;DHT22;2782;52.362;10.012;2023-06-26T00:56:14;21.50;99.90
5520;DHT22;2782;52.362;10.012;2023-06-26T00:57:16;21.40;99.90
5520;DHT22;2782;52.362;10.012;2023-06-26T00:58:17;21.40;99.90
5520;DHT22;2782;52.362;10.012;2023-06-26T00:59:18;21.40;99.90
5520;DHT22;2782;52.362;10.012;2023-06-26T01:00:19;21.40;99.90
5520;DHT22;2782;52.362;10.012;2023-06-26T01:01:21;21.40;99.90
5520;DHT22;2782;52.362;10.012;2023-06-26T01:02:26;21.40;99.90
5520;DHT22;2782;52.362;10.012;2023-06-26T01:03:28;21.40;99.90
5520;DHT22;2782;52.362;10.012;2023-06-26T01:04:30;21.40;99.90
5520;DHT22;2782;52.362;10.012;2023-06-26T01:05:34;21.40;99.90
5520;DHT22;2782;52.362;10.012;2023-06-26T01:06:35;21.40;99.90
5520;DHT22;2782;52.362;10.012;2023-06-26T01:07:37;21.40;99.90
5520;DHT22;2782;52.362;10.012;2023-06-26T01:08:39;21.40;99.90
5520;DHT22;2782;52.362;10.012;2023-06-26T01:09:41;21.40;99.90
5520;DHT22;2782;52.362;10.012;2023-06-26T01:10:42;21.40;99.90
5520;DHT22;2782;52.362;10.012;2023-06-26T01:11:44;21.40;99.90
5520;DHT22;2782;52.362;10.012;2023-06-26T01:12:45;21.40;99.90
5520;DHT22;2782;52.362;10.012;2023-06-26T01:13:46;21.40;99.90
5520;DHT22;2782;52.362;10.012;2023-06-26T01:14:47;21.40;99.90
5520;DHT22;2782;52.362;10.012;2023-06-26T01:15:49;21.40;99.90
5520;DHT22;2782;52.362;10.012;2023-06-26T01:16:50;21.30;99.90
5520;DHT22;2782;52.362;10.012;2023-06-26T01:17:52;21.30;99.90
5520;DHT22;2782;52.362;10.012;2023-06-26T01:18:55;21.30;99.90
5520;DHT22;2782;52.362;10.012;2023-06-26T01:19:58;21.40;99.90
5520;DHT22;2782;52.362;10.012;2023-06-26T01:21:00;21.40;99.90
5520;DHT22;2782;52.362;10.012;2023-06-26T01:22:09;21.40;99.90
5520;DHT22;2782;52.362;10.012;2023-06-26T01:23:19;21.40;99.90
5520;DHT22;2782;52.362;10.012;2023-06-26T01:24:23;21.40;99.90
5520;DHT22;2782;52.362;10.012;2023-06-26T01:25:33;21.40;99.90
5520;DHT22;2782;52.362;10.012;2023-06-26T01:26:40;21.40;99.90
5520;DHT22;2782;52.362;10.012;2023-06-26T01:27:43;21.40;99.90
5520;DHT22;2782;52.362;10.012;2023-06-26T01:28:46;21.50;99.90
5520;DHT22;2782;52.362;10.012;2023-06-26T01:29:47;21.50;99.90
5520;DHT22;2782;52.362;10.012;2023-06-26T01:30:50;21.60;99.90
5520;DHT22;2782;52.362;10.012;2023-06-26T01:31:51;21.60;99.90
5520;DHT22;2782;52.362;10.012;2023-06-26T01:32:53;21.60;99.90
5520;DHT22;2782;52.362;10.012;2023-06-26T01:33:54;21.60;99.90
5520;DHT22;2782;52.362;10.012;2023-06-26T01:34:57;21.70;99.90
5520;DHT22;2782;52.362;10.012;2023-06-26T01:35:59;21.60;99.90
5520;DHT22;2782;52.362;10.012;2023-06-26T01:37:01;21.60;99.90
5520;DHT22;2782;52.362;10.012;2023-06-26T01:38:12;21.60;99.90
5520;DHT22;2782;52.362;10.012;2023-06-26T01:39:19;21.60;99.90
5520;DHT22;2782;52.362;10.012;2023-06-26T01:40:20;21.70;99.90
5520;DHT22;2782;52.362;10.012;2023-06-26T01:41:22;21.70;99.90
5520;DHT22;2782;52.362;10.012;2023-06-26T01:42:24;21.70;99.90
5520;DHT22;2782;52.362;10.012;2023-06-26T01:43:31;21.70;99.90
5520;DHT22;2782;52.362;10.012;2023-06-26T01:44:37;21.60;99.90
5520;DHT22;2782;52.362;10.012;2023-06-26T01:45:42;21.60;99.90
5520;DHT22;2782;52.362;10.012;2023-06-26T01:46:49;21.60;99.90
5520;DHT22;2782;52.362;10.012;2023-06-26T01:47:54;21.60;99.90
5520;DHT22;2782;52.362;10.012;2023-06-26T01:49:02;21.50;99.90
5520;DHT22;2782;52.362;10.012;2023-06-26T01:50:07;21.50;99.90
5520;DHT22;2782;52.362;10.012;2023-06-26T01:51:12;21.50;99.90
5520;DHT22;2782;52.362;10.012;2023-06-26T01:52:19;21.50;99.90
5520;DHT22;2782;52.362;10.012;2023-06-26T01:53:27;21.40;99.90
5520;DHT22;2782;52.362;10.012;2023-06-26T01:54:35;21.40;99.90
5520;DHT22;2782;52.362;10.012;2023-06-26T01:55:42;21.40;99.90
5520;DHT22;2782;52.362;10.012;2023-06-26T01:56:45;21.40;99.90
5520;DHT22;2782;52.362;10.012;2023-06-26T01:57:51;21.40;99.90
5520;DHT22;2782;52.362;10.012;2023-06-26T01:58:53;21.40;99.90
5520;DHT22;2782;52.362;10.012;2023-06-26T01:59:56;21.30;99.90
5520;DHT22;2782;52.362;10.012;2023-06-26T02:00:57;21.30;99.90
5520;DHT22;2782;52.362;10.012;2023-06-26T02:02:00;21.30;99.90
5520;DHT22;2782;52.362;10.012;2023-06-26T02:03:01;21.30;99.90
5520;DHT22;2782;52.362;10.012;2023-06-26T02:04:03;21.30;99.90
5520;DHT22;2782;52.362;10.012;2023-06-26T02:05:04;21.30;99.90
5520;DHT22;2782;52.362;10.012;2023-06-26T02:06:05;21.30;99.90
5520;DHT22;2782;52.362;10.012;2023-06-26T02:07:06;21.20;99.90
5520;DHT22;2782;52.362;10.012;2023-06-26T02:08:14;21.20;99.90
5520;DHT22;2782;52.362;10.012;2023-06-26T02:09:14;21.20;99.90
5520;DHT22;2782;52.362;10.012;2023-06-26T02:10:16;21.20;99.90
5520;DHT22;2782;52.362;10.012;2023-06-26T02:11:18;21.20;99.90
5520;DHT22;2782;52.362;10.012;2023-06-26T02:12:20;21.20;99.90
5520;DHT22;2782;52.362;10.012;2023-06-26T02:13:22;21.20;99.90
5520;DHT22;2782;52.362;10.012;2023-06-26T02:14:23;21.20;99.90
5520;DHT22;2782;52.362;10.012;2023-06-26T02:15:25;21.20;99.90
5520;DHT22;2782;52.362;10.012;2023-06-26T02:16:25;21.20;99.90
5520;DHT22;2782;52.362;10.012;2023-06-26T02:17:27;21.20;99.90
5520;DHT22;2782;52.362;10.012;2023-06-26T02:18:28;21.20;99.90
5520;DHT22;2782;52.362;10.012;2023-06-26T02:19:30;21.10;99.90
5520;DHT22;2782;52.362;10.012;2023-06-26T02:20:31;21.20;99.90
5520;DHT22;2782;52.362;10.012;2023-06-26T02:21:34;21.10;99.90
5520;DHT22;2782;52.362;10.012;2023-06-26T02:22:36;21.10;99.90
5520;DHT22;2782;52.362;10.012;2023-06-26T02:23:38;21.10;99.90
5520;DHT22;2782;52.362;10.012;2023-06-26T02:24:39;21.10;99.90
5520;DHT22;2782;52.362;10.012;2023-06-26T02:25:41;21.10;99.90
5520;DHT22;2782;52.362;10.012;2023-06-26T02:26:42;21.10;99.90
5520;DHT22;2782;52.362;10.012;2023-06-26T02:27:44;21.10;99.90
5520;DHT22;2782;52.362;10.012;2023-06-26T02:28:47;21.10;99.90
5520;DHT22;2782;52.362;10.012;2023-06-26T02:29:48;21.10;99.90
5520;DHT22;2782;52.362;10.012;2023-06-26T02:30:50;21.20;99.90
5520;DHT22;2782;52.362;10.012;2023-06-26T02:31:50;21.10;99.90
5520;DHT22;2782;52.362;10.012;2023-06-26T02:32:52;21.10;99.90
5520;DHT22;2782;52.362;10.012;2023-06-26T02:33:53;21.10;99.90
5520;DHT22;2782;52.362;10.012;2023-06-26T02:34:55;21.10;99.90
5520;DHT22;2782;52.362;10.012;2023-06-26T02:35:56;21.10;99.90
5520;DHT22;2782;52.362;10.012;2023-06-26T02:36:58;21.10;99.90
5520;DHT22;2782;52.362;10.012;2023-06-26T02:38:00;21.10;99.90
5520;DHT22;2782;52.362;10.012;2023-06-26T02:39:02;21.10;99.90
5520;DHT22;2782;52.362;10.012;2023-06-26T02:40:04;21.10;99.90
5520;DHT22;2782;52.362;10.012;2023-06-26T02:41:07;21.10;99.90
5520;DHT22;2782;52.362;10.012;2023-06-26T02:42:09;21.10;99.90
5520;DHT22;2782;52.362;10.012;2023-06-26T02:43:11;21.10;99.90
5520;DHT22;2782;52.362;10.012;2023-06-26T02:44:13;21.10;99.90
5520;DHT22;2782;52.362;10.012;2023-06-26T02:45:15;21.10;99.90
5520;DHT22;2782;52.362;10.012;2023-06-26T02:46:16;21.10;99.90
5520;DHT22;2782;52.362;10.012;2023-06-26T02:47:18;21.10;99.90
5520;DHT22;2782;52.362;10.012;2023-06-26T02:48:19;21.10;99.90
5520;DHT22;2782;52.362;10.012;2023-06-26T02:49:22;21.10;99.90
5520;DHT22;2782;52.362;10.012;2023-06-26T02:50:23;21.10;99.90
5520;DHT22;2782;52.362;10.012;2023-06-26T02:51:25;21.10;99.90
5520;DHT22;2782;52.362;10.012;2023-06-26T02:52:26;21.10;99.90
5520;DHT22;2782;52.362;10.012;2023-06-26T02:53:29;21.10;99.90
5520;DHT22;2782;52.362;10.012;2023-06-26T02:54:30;21.10;99.90
5520;DHT22;2782;52.362;10.012;2023-06-26T02:55:34;21.10;99.90
5520;DHT22;2782;52.362;10.012;2023-06-26T02:56:35;21.10;99.90
5520;DHT22;2782;52.362;10.012;2023-06-26T02:57:38;21.10;99.90
5520;DHT22;2782;52.362;10.012;2023-06-26T02:58:39;21.10;99.90
5520;DHT22;2782;52.362;10.012;2023-06-26T02:59:42;21.10;99.90
5520;DHT22;2782;52.362;10.012;2023-06-26T03:00:44;21.10;99.90
5520;DHT22;2782;52.362;10.012;2023-06-26T03:01:46;21.10;99.90
5520;DHT22;2782;52.362;10.012;2023-06-26T03:02:47;21.10;99.90
5520;DHT22;2782;52.362;10.012;2023-06-26T03:03:49;21.00;99.80
5520;DHT22;2782;52.362;10.012;2023-06-26T03:04:50;21.00;99.90
5520;DHT22;2782;52.362;10.012;2023-06-26T03:05:53;21.00;99.90
5520;DHT22;2782;52.362;10.012;2023-06-26T03:06:55;21.00;99.90
5520;DHT22;2782;52.362;10.012;2023-06-26T03:07:56;21.00;99.90
5520;DHT22;2782;52.362;10.012;2023-06-26T03:08:57;21.00;99.90
5520;DHT22;2782;52.362;10.012;2023-06-26T03:09:58;21.00;99.90
5520;DHT22;2782;52.362;10.012;2023-06-26T03:11:00;21.00;99.90
5520;DHT22;2782;52.362;10.012;2023-06-26T03:12:01;21.00;99.90
5520;DHT22;2782;52.362;10.012;2023-06-26T03:13:02;21.00;99.90
5520;DHT22;2782;52.362;10.012;2023-06-26T03:14:03;21.00;99.90
5520;DHT22;2782;52.362;10.012;2023-06-26T03:15:07;21.10;99.90
5520;DHT22;2782;52.362;10.012;2023-06-26T03:16:08;21.10;99.90
5520;DHT22;2782;52.362;10.012;2023-06-26T03:17:09;21.10;99.90
5520;DHT22;2782;52.362;10.012;2023-06-26T03:18:10;21.10;99.90
5520;DHT22;2782;52.362;10.012;2023-06-26T03:19:12;21.10;99.90
5520;DHT22;2782;52.362;10.012;2023-06-26T03:20:13;21.10;99.90
5520;DHT22;2782;52.362;10.012;2023-06-26T03:21:16;21.10;99.90
5520;DHT22;2782;52.362;10.012;2023-06-26T03:22:17;21.10;99.90
5520;DHT22;2782;52.362;10.012;2023-06-26T03:23:18;21.10;99.90
5520;DHT22;2782;52.362;10.012;2023-06-26T03:24:19;21.10;99.90
5520;DHT22;2782;52.362;10.012;2023-06-26T03:25:21;21.10;99.90
5520;DHT22;2782;52.362;10.012;2023-06-26T03:26:22;21.10;99.90
5520;DHT22;2782;52.362;10.012;2023-06-26T03:27:27;21.10;99.90
5520;DHT22;2782;52.362;10.012;2023-06-26T03:28:28;21.10;99.90
5520;DHT22;2782;52.362;10.012;2023-06-26T03:29:31;21.10;99.90
5520;DHT22;2782;52.362;10.012;2023-06-26T03:30:33;21.10;99.90
5520;DHT22;2782;52.362;10.012;2023-06-26T03:31:35;21.10;99.90
5520;DHT22;2782;52.362;10.012;2023-06-26T03:32:35;21.10;99.90
5520;DHT22;2782;52.362;10.012;2023-06-26T03:33:37;21.10;99.90
5520;DHT22;2782;52.362;10.012;2023-06-26T03:34:38;21.10;99.90
5520;DHT22;2782;52.362;10.012;2023-06-26T03:35:40;21.10;99.80
5520;DHT22;2782;52.362;10.012;2023-06-26T03:36:40;21.10;99.80
5520;DHT22;2782;52.362;10.012;2023-06-26T03:37:42;21.10;99.80
5520;DHT22;2782;52.362;10.012;2023-06-26T03:38:43;21.10;99.80
5520;DHT22;2782;52.362;10.012;2023-06-26T03:39:44;21.10;99.80
5520;DHT22;2782;52.362;10.012;2023-06-26T03:40:45;21.10;99.70
5520;DHT22;2782;52.362;10.012;2023-06-26T03:41:47;21.10;99.70
5520;DHT22;2782;52.362;10.012;2023-06-26T03:42:47;21.10;99.60
5520;DHT22;2782;52.362;10.012;2023-06-26T03:43:49;21.10;99.50
5520;DHT22;2782;52.362;10.012;2023-06-26T03:44:49;21.10;99.50
5520;DHT22;2782;52.362;10.012;2023-06-26T03:45:52;21.10;99.50
5520;DHT22;2782;52.362;10.012;2023-06-26T03:46:53;21.10;99.40
5520;DHT22;2782;52.362;10.012;2023-06-26T03:47:55;21.10;99.40
5520;DHT22;2782;52.362;10.012;2023-06-26T03:48:55;21.20;99.40
5520;DHT22;2782;52.362;10.012;2023-06-26T03:49:57;21.10;99.30
5520;DHT22;2782;52.362;10.012;2023-06-26T03:50:57;21.20;99.40
5520;DHT22;2782;52.362;10.012;2023-06-26T03:51:59;21.20;99.30
5520;DHT22;2782;52.362;10.012;2023-06-26T03:53:00;21.20;99.30
5520;DHT22;2782;52.362;10.012;2023-06-26T03:54:02;21.20;99.20
5520;DHT22;2782;52.362;10.012;2023-06-26T03:55:03;21.20;99.10
5520;DHT22;2782;52.362;10.012;2023-06-26T03:56:05;21.30;99.40
5520;DHT22;2782;52.362;10.012;2023-06-26T03:57:06;21.20;99.10
5520;DHT22;2782;52.362;10.012;2023-06-26T03:58:07;21.20;98.80
5520;DHT22;2782;52.362;10.012;2023-06-26T03:59:08;21.20;98.80
5520;DHT22;2782;52.362;10.012;2023-06-26T04:00:11;21.20;98.60
5520;DHT22;2782;52.362;10.012;2023-06-26T04:01:14;21.30;98.70
5520;DHT22;2782;52.362;10.012;2023-06-26T04:02:16;21.30;98.70
5520;DHT22;2782;52.362;10.012;2023-06-26T04:03:16;21.30;98.80
5520;DHT22;2782;52.362;10.012;2023-06-26T04:04:18;21.30;98.90
5520;DHT22;2782;52.362;10.012;2023-06-26T04:05:19;21.30;98.90
5520;DHT22;2782;52.362;10.012;2023-06-26T04:06:21;21.40;99.00
5520;DHT22;2782;52.362;10.012;2023-06-26T04:07:21;21.40;98.70
5520;DHT22;2782;52.362;10.012;2023-06-26T04:08:23;21.40;98.50
5520;DHT22;2782;52.362;10.012;2023-06-26T04:09:25;21.40;98.40
5520;DHT22;2782;52.362;10.012;2023-06-26T04:10:27;21.40;98.20
5520;DHT22;2782;52.362;10.012;2023-06-26T04:11:27;21.50;98.10
5520;DHT22;2782;52.362;10.012;2023-06-26T04:12:29;21.50;97.90
5520;DHT22;2782;52.362;10.012;2023-06-26T04:13:29;21.50;97.90
5520;DHT22;2782;52.362;10.012;2023-06-26T04:14:31;21.50;97.90
5520;DHT22;2782;52.362;10.012;2023-06-26T04:15:32;21.50;97.80
5520;DHT22;2782;52.362;10.012;2023-06-26T04:16:34;21.60;97.80
5520;DHT22;2782;52.362;10.012;2023-06-26T04:17:35;21.60;97.60
5520;DHT22;2782;52.362;10.012;2023-06-26T04:18:37;21.60;97.50
5520;DHT22;2782;52.362;10.012;2023-06-26T04:19:37;21.60;97.30
5520;DHT22;2782;52.362;10.012;2023-06-26T04:20:41;21.60;97.30
5520;DHT22;2782;52.362;10.012;2023-06-26T04:21:42;21.60;97.40
5520;DHT22;2782;52.362;10.012;2023-06-26T04:22:43;21.60;97.70
5520;DHT22;2782;52.362;10.012;2023-06-26T04:23:44;21.60;98.10
5520;DHT22;2782;52.362;10.012;2023-06-26T04:24:46;21.70;98.10
5520;DHT22;2782;52.362;10.012;2023-06-26T04:25:47;21.70;98.10
5520;DHT22;2782;52.362;10.012;2023-06-26T04:26:48;21.70;97.90
5520;DHT22;2782;52.362;10.012;2023-06-26T04:27:50;21.70;98.10
5520;DHT22;2782;52.362;10.012;2023-06-26T04:28:50;21.80;98.40
5520;DHT22;2782;52.362;10.012;2023-06-26T04:29:52;21.80;98.50
5520;DHT22;2782;52.362;10.012;2023-06-26T04:30:52;21.80;98.80
5520;DHT22;2782;52.362;10.012;2023-06-26T04:31:56;21.80;98.90
5520;DHT22;2782;52.362;10.012;2023-06-26T04:32:58;21.80;98.70
5520;DHT22;2782;52.362;10.012;2023-06-26T04:33:59;21.90;98.50
5520;DHT22;2782;52.362;10.012;2023-06-26T04:35:00;21.90;98.40
5520;DHT22;2782;52.362;10.012;2023-06-26T04:36:01;21.90;98.10
5520;DHT22;2782;52.362;10.012;2023-06-26T04:37:04;21.90;98.40
5520;DHT22;2782;52.362;10.012;2023-06-26T04:38:04;22.00;97.90
5520;DHT22;2782;52.362;10.012;2023-06-26T04:39:06;22.10;97.80
5520;DHT22;2782;52.362;10.012;2023-06-26T04:40:08;22.10;97.90
5520;DHT22;2782;52.362;10.012;2023-06-26T04:41:11;22.10;97.90
5520;DHT22;2782;52.362;10.012;2023-06-26T04:42:12;22.10;98.00
5520;DHT22;2782;52.362;10.012;2023-06-26T04:43:14;22.20;98.50
5520;DHT22;2782;52.362;10.012;2023-06-26T04:44:14;22.20;98.70
5520;DHT22;2782;52.362;10.012;2023-06-26T04:45:16;22.30;98.40
5520;DHT22;2782;52.362;10.012;2023-06-26T04:46:17;22.30;98.90
5520;DHT22;2782;52.362;10.012;2023-06-26T04:47:20;22.30;98.90
5520;DHT22;2782;52.362;10.012;2023-06-26T04:48:22;22.30;98.50
5520;DHT22;2782;52.362;10.012;2023-06-26T04:49:23;22.40;98.30
5520;DHT22;2782;52.362;10.012;2023-06-26T04:50:24;22.40;97.90
5520;DHT22;2782;52.362;10.012;2023-06-26T04:51:25;22.50;97.70
5520;DHT22;2782;52.362;10.012;2023-06-26T04:52:27;22.50;97.70
5520;DHT22;2782;52.362;10.012;2023-06-26T04:53:28;22.50;97.80
5520;DHT22;2782;52.362;10.012;2023-06-26T04:54:29;22.50;98.10
5520;DHT22;2782;52.362;10.012;2023-06-26T04:55:30;22.60;98.50
5520;DHT22;2782;52.362;10.012;2023-06-26T04:56:31;22.60;98.30
5520;DHT22;2782;52.362;10.012;2023-06-26T04:57:33;22.60;98.40
5520;DHT22;2782;52.362;10.012;2023-06-26T04:58:34;22.70;99.00
5520;DHT22;2782;52.362;10.012;2023-06-26T04:59:35;22.70;99.50
5520;DHT22;2782;52.362;10.012;2023-06-26T05:00:36;22.70;99.70
5520;DHT22;2782;52.362;10.012;2023-06-26T05:01:37;22.70;99.90
5520;DHT22;2782;52.362;10.012;2023-06-26T05:02:41;22.80;99.90
5520;DHT22;2782;52.362;10.012;2023-06-26T05:03:42;22.80;99.90
5520;DHT22;2782;52.362;10.012;2023-06-26T05:04:43;22.80;99.90
5520;DHT22;2782;52.362;10.012;2023-06-26T05:05:46;22.90;99.90
5520;DHT22;2782;52.362;10.012;2023-06-26T05:06:47;22.90;99.90
5520;DHT22;2782;52.362;10.012;2023-06-26T05:07:49;22.90;99.90
5520;DHT22;2782;52.362;10.012;2023-06-26T05:08:49;22.90;99.40
5520;DHT22;2782;52.362;10.012;2023-06-26T05:09:51;22.90;99.10
5520;DHT22;2782;52.362;10.012;2023-06-26T05:10:52;22.90;98.70
5520;DHT22;2782;52.362;10.012;2023-06-26T05:11:58;22.90;98.70
5520;DHT22;2782;52.362;10.012;2023-06-26T05:12:59;23.00;98.50
5520;DHT22;2782;52.362;10.012;2023-06-26T05:14:00;23.00;98.70
5520;DHT22;2782;52.362;10.012;2023-06-26T05:15:02;23.00;98.60
5520;DHT22;2782;52.362;10.012;2023-06-26T05:16:03;23.00;98.50
5520;DHT22;2782;52.362;10.012;2023-06-26T05:17:05;23.00;98.50
5520;DHT22;2782;52.362;10.012;2023-06-26T05:18:07;23.00;98.50
5520;DHT22;2782;52.362;10.012;2023-06-26T05:19:09;23.00;98.90
5520;DHT22;2782;52.362;10.012;2023-06-26T05:20:11;23.00;98.90
5520;DHT22;2782;52.362;10.012;2023-06-26T05:21:12;23.00;98.90
5520;DHT22;2782;52.362;10.012;2023-06-26T05:22:13;23.00;98.90
5520;DHT22;2782;52.362;10.012;2023-06-26T05:23:16;23.00;98.80
5520;DHT22;2782;52.362;10.012;2023-06-26T05:24:19;23.00;98.60
5520;DHT22;2782;52.362;10.012;2023-06-26T05:25:22;23.00;98.60
5520;DHT22;2782;52.362;10.012;2023-06-26T05:26:24;23.00;98.70
5520;DHT22;2782;52.362;10.012;2023-06-26T05:27:26;23.00;98.50
5520;DHT22;2782;52.362;10.012;2023-06-26T05:28:28;23.00;98.40
5520;DHT22;2782;52.362;10.012;2023-06-26T05:29:32;23.10;98.40
5520;DHT22;2782;52.362;10.012;2023-06-26T05:30:33;23.10;98.50
5520;DHT22;2782;52.362;10.012;2023-06-26T05:31:40;23.10;98.70
5520;DHT22;2782;52.362;10.012;2023-06-26T05:32:41;23.10;98.70
5520;DHT22;2782;52.362;10.012;2023-06-26T05:33:46;23.10;98.70
5520;DHT22;2782;52.362;10.012;2023-06-26T05:34:48;23.10;98.60
5520;DHT22;2782;52.362;10.012;2023-06-26T05:35:52;23.10;98.70
5520;DHT22;2782;52.362;10.012;2023-06-26T05:36:57;23.10;98.60
5520;DHT22;2782;52.362;10.012;2023-06-26T05:37:59;23.10;98.50
5520;DHT22;2782;52.362;10.012;2023-06-26T05:39:00;23.10;98.50
5520;DHT22;2782;52.362;10.012;2023-06-26T05:40:03;23.10;98.40
5520;DHT22;2782;52.362;10.012;2023-06-26T05:41:04;23.10;98.30
5520;DHT22;2782;52.362;10.012;2023-06-26T05:42:07;23.10;98.20
5520;DHT22;2782;52.362;10.012;2023-06-26T05:43:08;23.10;98.20
5520;DHT22;2782;52.362;10.012;2023-06-26T05:44:10;23.10;98.20
5520;DHT22;2782;52.362;10.012;2023-06-26T05:45:11;23.10;98.10
5520;DHT22;2782;52.362;10.012;2023-06-26T05:46:12;23.10;97.90
5520;DHT22;2782;52.362;10.012;2023-06-26T05:47:14;23.10;97.80
5520;DHT22;2782;52.362;10.012;2023-06-26T05:48:15;23.10;97.80
5520;DHT22;2782;52.362;10.012;2023-06-26T05:49:18;23.10;97.80
5520;DHT22;2782;52.362;10.012;2023-06-26T05:50:19;23.10;97.80
5520;DHT22;2782;52.362;10.012;2023-06-26T05:51:21;23.10;97.80
5520;DHT22;2782;52.362;10.012;2023-06-26T05:52:23;23.10;97.80
5520;DHT22;2782;52.362;10.012;2023-06-26T05:53:25;23.10;97.80
5520;DHT22;2782;52.362;10.012;2023-06-26T05:54:28;23.10;97.80
5520;DHT22;2782;52.362;10.012;2023-06-26T05:55:29;23.10;97.70
5520;DHT22;2782;52.362;10.012;2023-06-26T05:56:31;23.10;97.80
5520;DHT22;2782;52.362;10.012;2023-06-26T05:57:34;23.10;97.80
5520;DHT22;2782;52.362;10.012;2023-06-26T05:58:36;23.10;97.70
5520;DHT22;2782;52.362;10.012;2023-06-26T05:59:40;23.10;97.80
5520;DHT22;2782;52.362;10.012;2023-06-26T06:00:41;23.10;97.70
5520;DHT22;2782;52.362;10.012;2023-06-26T06:01:43;23.10;97.70
5520;DHT22;2782;52.362;10.012;2023-06-26T06:02:43;23.10;97.80
5520;DHT22;2782;52.362;10.012;2023-06-26T06:03:45;23.10;97.80
5520;DHT22;2782;52.362;10.012;2023-06-26T06:04:47;23.10;97.70
5520;DHT22;2782;52.362;10.012;2023-06-26T06:05:49;23.10;97.80
5520;DHT22;2782;52.362;10.012;2023-06-26T06:06:49;23.10;97.80
5520;DHT22;2782;52.362;10.012;2023-06-26T06:07:51;23.10;97.80
5520;DHT22;2782;52.362;10.012;2023-06-26T06:08:52;23.20;97.80
5520;DHT22;2782;52.362;10.012;2023-06-26T06:09:53;23.20;97.90
5520;DHT22;2782;52.362;10.012;2023-06-26T06:10:54;23.20;98.00
5520;DHT22;2782;52.362;10.012;2023-06-26T06:11:56;23.20;97.90
5520;DHT22;2782;52.362;10.012;2023-06-26T06:12:56;23.20;98.00
5520;DHT22;2782;52.362;10.012;2023-06-26T06:13:58;23.20;98.00
5520;DHT22;2782;52.362;10.012;2023-06-26T06:15:00;23.20;98.00
5520;DHT22;2782;52.362;10.012;2023-06-26T06:16:01;23.20;98.20
5520;DHT22;2782;52.362;10.012;2023-06-26T06:17:02;23.20;98.30
5520;DHT22;2782;52.362;10.012;2023-06-26T06:18:04;23.20;98.30
5520;DHT22;2782;52.362;10.012;2023-06-26T06:19:05;23.20;98.20
5520;DHT22;2782;52.362;10.012;2023-06-26T06:20:10;23.20;98.10
5520;DHT22;2782;52.362;10.012;2023-06-26T06:21:11;23.20;98.10
5520;DHT22;2782;52.362;10.012;2023-06-26T06:22:12;23.20;98.10
5520;DHT22;2782;52.362;10.012;2023-06-26T06:23:14;23.20;98.10
5520;DHT22;2782;52.362;10.012;2023-06-26T06:24:15;23.20;98.10
5520;DHT22;2782;52.362;10.012;2023-06-26T06:25:16;23.20;98.20
5520;DHT22;2782;52.362;10.012;2023-06-26T06:26:18;23.20;98.20
5520;DHT22;2782;52.362;10.012;2023-06-26T06:27:19;23.20;98.30
5520;DHT22;2782;52.362;10.012;2023-06-26T06:28:20;23.20;98.20
5520;DHT22;2782;52.362;10.012;2023-06-26T06:29:22;23.20;98.20
5520;DHT22;2782;52.362;10.012;2023-06-26T06:30:23;23.20;98.20
5520;DHT22;2782;52.362;10.012;2023-06-26T06:31:24;23.20;98.30
5520;DHT22;2782;52.362;10.012;2023-06-26T06:32:25;23.20;98.40
5520;DHT22;2782;52.362;10.012;2023-06-26T06:33:26;23.20;98.50
5520;DHT22;2782;52.362;10.012;2023-06-26T06:34:27;23.20;98.40
5520;DHT22;2782;52.362;10.012;2023-06-26T06:35:30;23.20;98.50
5520;DHT22;2782;52.362;10.012;2023-06-26T06:36:31;23.20;98.50
5520;DHT22;2782;52.362;10.012;2023-06-26T06:37:32;23.20;98.50